sensor_id;sensor_type;location;lat;lon;timestamp;P1;durP1;ratioP1;P2;durP2;ratioP2
33900;SDS011;20193;49.810;6.418;2022-08-18T00:02:05;7.72;;;7.20;;
33900;SDS011;20193;49.810;6.418;2022-08-18T00:04:35;8.30;;;7.80;;
33900;SDS011;20193;49.810;6.418;2022-08-18T00:07:07;7.85;;;7.35;;
33900;SDS011;20193;49.810;6.418;2022-08-18T00:09:34;8.60;;;8.00;;
33900;SDS011;20193;49.810;6.418;2022-08-18T00:12:04;7.35;;;6.95;;
33900;SDS011;20193;49.810;6.418;2022-08-18T00:14:31;8.15;;;7.47;;
33900;SDS011;20193;49.810;6.418;2022-08-18T00:16:57;8.27;;;7.57;;
33900;SDS011;20193;49.810;6.418;2022-08-18T00:19:23;9.05;;;8.45;;
33900;SDS011;20193;49.810;6.418;2022-08-18T00:21:50;7.93;;;7.43;;
33900;SDS011;20193;49.810;6.418;2022-08-18T00:24:15;8.25;;;7.75;;
33900;SDS011;20193;49.810;6.418;2022-08-18T00:26:41;8.02;;;7.53;;
33900;SDS011;20193;49.810;6.418;2022-08-18T00:29:07;8.60;;;8.10;;
33900;SDS011;20193;49.810;6.418;2022-08-18T00:31:33;7.90;;;7.40;;
33900;SDS011;20193;49.810;6.418;2022-08-18T00:33:58;8.55;;;8.05;;
33900;SDS011;20193;49.810;6.418;2022-08-18T00:36:24;8.77;;;8.07;;
33900;SDS011;20193;49.810;6.418;2022-08-18T00:38:51;8.73;;;8.10;;
33900;SDS011;20193;49.810;6.418;2022-08-18T00:41:18;8.55;;;7.95;;
33900;SDS011;20193;49.810;6.418;2022-08-18T00:43:48;8.55;;;8.05;;
33900;SDS011;20193;49.810;6.418;2022-08-18T00:46:26;8.52;;;8.02;;
33900;SDS011;20193;49.810;6.418;2022-08-18T00:48:54;8.95;;;8.30;;
33900;SDS011;20193;49.810;6.418;2022-08-18T00:54:02;8.80;;;8.20;;
33900;SDS011;20193;49.810;6.418;2022-08-18T00:56:46;8.88;;;8.38;;
33900;SDS011;20193;49.810;6.418;2022-08-18T01:02:09;9.25;;;8.68;;
33900;SDS011;20193;49.810;6.418;2022-08-18T01:04:55;8.55;;;8.05;;
33900;SDS011;20193;49.810;6.418;2022-08-18T01:07:33;8.52;;;8.02;;
33900;SDS011;20193;49.810;6.418;2022-08-18T01:10:03;9.13;;;8.43;;
33900;SDS011;20193;49.810;6.418;2022-08-18T01:12:30;9.68;;;9.07;;
33900;SDS011;20193;49.810;6.418;2022-08-18T01:14:56;8.82;;;8.32;;
33900;SDS011;20193;49.810;6.418;2022-08-18T01:17:22;9.25;;;8.75;;
33900;SDS011;20193;49.810;6.418;2022-08-18T01:20:09;9.20;;;8.63;;
33900;SDS011;20193;49.810;6.418;2022-08-18T01:23:01;9.20;;;8.60;;
33900;SDS011;20193;49.810;6.418;2022-08-18T01:25:31;9.07;;;8.52;;
33900;SDS011;20193;49.810;6.418;2022-08-18T01:28:16;9.10;;;8.50;;
33900;SDS011;20193;49.810;6.418;2022-08-18T01:30:47;9.55;;;8.95;;
33900;SDS011;20193;49.810;6.418;2022-08-18T01:33:15;9.90;;;9.23;;
33900;SDS011;20193;49.810;6.418;2022-08-18T01:35:42;9.57;;;8.98;;
33900;SDS011;20193;49.810;6.418;2022-08-18T01:38:13;9.77;;;9.07;;
33900;SDS011;20193;49.810;6.418;2022-08-18T01:40:40;10.02;;;9.23;;
33900;SDS011;20193;49.810;6.418;2022-08-18T01:43:06;10.90;;;10.13;;
33900;SDS011;20193;49.810;6.418;2022-08-18T01:45:32;9.80;;;9.10;;
33900;SDS011;20193;49.810;6.418;2022-08-18T01:47:58;10.77;;;10.15;;
33900;SDS011;20193;49.810;6.418;2022-08-18T01:50:24;9.82;;;9.23;;
33900;SDS011;20193;49.810;6.418;2022-08-18T01:52:51;9.13;;;8.55;;
33900;SDS011;20193;49.810;6.418;2022-08-18T01:55:17;9.30;;;8.80;;
33900;SDS011;20193;49.810;6.418;2022-08-18T01:57:44;9.45;;;8.82;;
33900;SDS011;20193;49.810;6.418;2022-08-18T02:00:11;9.60;;;9.00;;
33900;SDS011;20193;49.810;6.418;2022-08-18T02:02:38;9.63;;;8.90;;
33900;SDS011;20193;49.810;6.418;2022-08-18T02:05:06;10.13;;;9.50;;
33900;SDS011;20193;49.810;6.418;2022-08-18T02:07:38;9.60;;;8.80;;
33900;SDS011;20193;49.810;6.418;2022-08-18T02:10:05;10.43;;;9.57;;
33900;SDS011;20193;49.810;6.418;2022-08-18T02:12:33;9.82;;;9.13;;
33900;SDS011;20193;49.810;6.418;2022-08-18T02:14:59;9.98;;;9.38;;
33900;SDS011;20193;49.810;6.418;2022-08-18T02:17:24;10.45;;;9.75;;
33900;SDS011;20193;49.810;6.418;2022-08-18T02:19:50;9.57;;;9.02;;
33900;SDS011;20193;49.810;6.418;2022-08-18T02:22:18;9.50;;;8.85;;
33900;SDS011;20193;49.810;6.418;2022-08-18T02:24:44;10.48;;;9.73;;
33900;SDS011;20193;49.810;6.418;2022-08-18T02:27:11;9.32;;;8.73;;
33900;SDS011;20193;49.810;6.418;2022-08-18T02:29:38;9.65;;;9.05;;
33900;SDS011;20193;49.810;6.418;2022-08-18T02:32:05;10.07;;;9.27;;
33900;SDS011;20193;49.810;6.418;2022-08-18T02:34:31;10.60;;;9.80;;
33900;SDS011;20193;49.810;6.418;2022-08-18T02:37:00;9.43;;;8.82;;
33900;SDS011;20193;49.810;6.418;2022-08-18T02:39:26;9.98;;;9.25;;
33900;SDS011;20193;49.810;6.418;2022-08-18T02:41:52;10.32;;;9.73;;
33900;SDS011;20193;49.810;6.418;2022-08-18T02:44:18;10.23;;;9.63;;
33900;SDS011;20193;49.810;6.418;2022-08-18T02:46:43;9.20;;;8.60;;
33900;SDS011;20193;49.810;6.418;2022-08-18T02:49:10;10.73;;;9.95;;
33900;SDS011;20193;49.810;6.418;2022-08-18T02:51:36;11.20;;;10.27;;
33900;SDS011;20193;49.810;6.418;2022-08-18T02:54:02;10.75;;;9.93;;
33900;SDS011;20193;49.810;6.418;2022-08-18T02:56:33;9.98;;;9.38;;
33900;SDS011;20193;49.810;6.418;2022-08-18T02:59:00;10.38;;;9.77;;
33900;SDS011;20193;49.810;6.418;2022-08-18T03:01:31;10.45;;;9.77;;
33900;SDS011;20193;49.810;6.418;2022-08-18T03:04:00;10.30;;;9.60;;
33900;SDS011;20193;49.810;6.418;2022-08-18T03:06:27;10.90;;;10.02;;
33900;SDS011;20193;49.810;6.418;2022-08-18T03:08:54;9.98;;;9.35;;
33900;SDS011;20193;49.810;6.418;2022-08-18T03:11:21;10.75;;;9.95;;
33900;SDS011;20193;49.810;6.418;2022-08-18T03:13:49;11.32;;;10.40;;
33900;SDS011;20193;49.810;6.418;2022-08-18T03:16:15;10.23;;;9.63;;
33900;SDS011;20193;49.810;6.418;2022-08-18T03:18:44;10.75;;;10.13;;
33900;SDS011;20193;49.810;6.418;2022-08-18T03:21:14;10.88;;;9.90;;
33900;SDS011;20193;49.810;6.418;2022-08-18T03:23:45;11.27;;;10.48;;
33900;SDS011;20193;49.810;6.418;2022-08-18T03:26:12;9.60;;;9.00;;
33900;SDS011;20193;49.810;6.418;2022-08-18T03:28:39;10.27;;;9.68;;
33900;SDS011;20193;49.810;6.418;2022-08-18T03:31:12;10.98;;;10.27;;
33900;SDS011;20193;49.810;6.418;2022-08-18T03:33:42;11.05;;;10.35;;
33900;SDS011;20193;49.810;6.418;2022-08-18T03:36:16;10.95;;;10.25;;
33900;SDS011;20193;49.810;6.418;2022-08-18T03:38:43;10.68;;;9.98;;
33900;SDS011;20193;49.810;6.418;2022-08-18T03:41:11;9.98;;;9.38;;
33900;SDS011;20193;49.810;6.418;2022-08-18T03:43:39;10.45;;;9.85;;
33900;SDS011;20193;49.810;6.418;2022-08-18T03:46:07;10.52;;;9.90;;
33900;SDS011;20193;49.810;6.418;2022-08-18T03:48:35;10.43;;;9.73;;
33900;SDS011;20193;49.810;6.418;2022-08-18T03:51:07;10.18;;;9.50;;
33900;SDS011;20193;49.810;6.418;2022-08-18T03:53:37;10.50;;;9.70;;
33900;SDS011;20193;49.810;6.418;2022-08-18T03:56:11;10.60;;;9.88;;
33900;SDS011;20193;49.810;6.418;2022-08-18T03:58:45;10.45;;;9.75;;
33900;SDS011;20193;49.810;6.418;2022-08-18T04:01:12;10.68;;;9.98;;
33900;SDS011;20193;49.810;6.418;2022-08-18T04:03:43;10.13;;;9.52;;
33900;SDS011;20193;49.810;6.418;2022-08-18T04:06:15;10.55;;;9.77;;
33900;SDS011;20193;49.810;6.418;2022-08-18T04:08:42;11.02;;;10.43;;
33900;SDS011;20193;49.810;6.418;2022-08-18T04:11:08;11.43;;;10.63;;
33900;SDS011;20193;49.810;6.418;2022-08-18T04:13:34;11.43;;;10.63;;
33900;SDS011;20193;49.810;6.418;2022-08-18T04:16:01;11.32;;;10.57;;
33900;SDS011;20193;49.810;6.418;2022-08-18T04:18:27;11.73;;;11.05;;
33900;SDS011;20193;49.810;6.418;2022-08-18T04:20:54;12.10;;;11.25;;
33900;SDS011;20193;49.810;6.418;2022-08-18T04:23:19;11.07;;;10.27;;
33900;SDS011;20193;49.810;6.418;2022-08-18T04:25:45;11.18;;;10.38;;
33900;SDS011;20193;49.810;6.418;2022-08-18T04:28:19;11.07;;;10.27;;
33900;SDS011;20193;49.810;6.418;2022-08-18T04:30:44;11.10;;;10.40;;
33900;SDS011;20193;49.810;6.418;2022-08-18T04:33:10;11.50;;;10.70;;
33900;SDS011;20193;49.810;6.418;2022-08-18T04:35:35;12.45;;;11.45;;
33900;SDS011;20193;49.810;6.418;2022-08-18T04:38:01;11.38;;;10.30;;
33900;SDS011;20193;49.810;6.418;2022-08-18T04:40:26;11.15;;;10.18;;
33900;SDS011;20193;49.810;6.418;2022-08-18T04:42:53;10.95;;;10.15;;
33900;SDS011;20193;49.810;6.418;2022-08-18T04:45:19;12.38;;;11.30;;
33900;SDS011;20193;49.810;6.418;2022-08-18T04:47:45;10.93;;;10.20;;
33900;SDS011;20193;49.810;6.418;2022-08-18T04:50:10;12.70;;;11.90;;
33900;SDS011;20193;49.810;6.418;2022-08-18T04:52:36;13.15;;;12.10;;
33900;SDS011;20193;49.810;6.418;2022-08-18T04:55:21;11.32;;;10.63;;
33900;SDS011;20193;49.810;6.418;2022-08-18T04:57:46;11.68;;;10.88;;
33900;SDS011;20193;49.810;6.418;2022-08-18T05:00:12;12.43;;;11.57;;
33900;SDS011;20193;49.810;6.418;2022-08-18T05:02:38;11.45;;;10.45;;
33900;SDS011;20193;49.810;6.418;2022-08-18T05:05:04;11.48;;;10.73;;
33900;SDS011;20193;49.810;6.418;2022-08-18T05:07:30;11.73;;;11.02;;
33900;SDS011;20193;49.810;6.418;2022-08-18T05:09:56;12.52;;;11.52;;
33900;SDS011;20193;49.810;6.418;2022-08-18T05:12:22;11.20;;;10.52;;
33900;SDS011;20193;49.810;6.418;2022-08-18T05:14:48;11.75;;;10.95;;
33900;SDS011;20193;49.810;6.418;2022-08-18T05:17:15;12.45;;;11.68;;
33900;SDS011;20193;49.810;6.418;2022-08-18T05:19:41;12.30;;;11.50;;
33900;SDS011;20193;49.810;6.418;2022-08-18T05:22:08;13.40;;;12.20;;
33900;SDS011;20193;49.810;6.418;2022-08-18T05:24:34;13.07;;;12.13;;
33900;SDS011;20193;49.810;6.418;2022-08-18T05:27:00;11.90;;;11.10;;
33900;SDS011;20193;49.810;6.418;2022-08-18T05:29:27;12.50;;;11.60;;
33900;SDS011;20193;49.810;6.418;2022-08-18T05:31:58;12.38;;;11.40;;
33900;SDS011;20193;49.810;6.418;2022-08-18T05:34:27;10.90;;;10.20;;
33900;SDS011;20193;49.810;6.418;2022-08-18T05:37:00;12.30;;;11.50;;
33900;SDS011;20193;49.810;6.418;2022-08-18T05:39:32;12.93;;;11.93;;
33900;SDS011;20193;49.810;6.418;2022-08-18T05:42:07;12.23;;;11.48;;
33900;SDS011;20193;49.810;6.418;2022-08-18T05:44:40;12.43;;;11.63;;
33900;SDS011;20193;49.810;6.418;2022-08-18T05:47:13;12.18;;;11.27;;
33900;SDS011;20193;49.810;6.418;2022-08-18T05:49:43;12.18;;;11.38;;
33900;SDS011;20193;49.810;6.418;2022-08-18T05:55:16;12.07;;;11.07;;
33900;SDS011;20193;49.810;6.418;2022-08-18T05:58:13;12.93;;;12.13;;
33900;SDS011;20193;49.810;6.418;2022-08-18T06:00:51;12.82;;;11.93;;
33900;SDS011;20193;49.810;6.418;2022-08-18T06:03:23;13.05;;;12.18;;
33900;SDS011;20193;49.810;6.418;2022-08-18T06:05:54;13.30;;;12.43;;
33900;SDS011;20193;49.810;6.418;2022-08-18T06:08:29;11.95;;;11.15;;
33900;SDS011;20193;49.810;6.418;2022-08-18T06:11:01;12.32;;;11.30;;
33900;SDS011;20193;49.810;6.418;2022-08-18T06:13:27;12.70;;;11.70;;
33900;SDS011;20193;49.810;6.418;2022-08-18T06:37:49;14.02;;;13.23;;
33900;SDS011;20193;49.810;6.418;2022-08-18T06:40:45;14.48;;;13.23;;
33900;SDS011;20193;49.810;6.418;2022-08-18T06:43:14;14.45;;;13.55;;
33900;SDS011;20193;49.810;6.418;2022-08-18T06:45:42;14.60;;;13.60;;
33900;SDS011;20193;49.810;6.418;2022-08-18T06:50:55;13.52;;;12.50;;
33900;SDS011;20193;49.810;6.418;2022-08-18T07:01:54;13.80;;;12.85;;
33900;SDS011;20193;49.810;6.418;2022-08-18T07:04:41;15.68;;;14.48;;
33900;SDS011;20193;49.810;6.418;2022-08-18T07:07:41;14.43;;;13.52;;
33900;SDS011;20193;49.810;6.418;2022-08-18T07:10:04;13.57;;;12.52;;
33900;SDS011;20193;49.810;6.418;2022-08-18T07:12:50;15.00;;;13.80;;
33900;SDS011;20193;49.810;6.418;2022-08-18T07:15:17;14.13;;;13.05;;
33900;SDS011;20193;49.810;6.418;2022-08-18T07:17:49;13.93;;;13.05;;
33900;SDS011;20193;49.810;6.418;2022-08-18T07:20:21;14.02;;;13.02;;
33900;SDS011;20193;49.810;6.418;2022-08-18T07:22:58;14.80;;;13.82;;
33900;SDS011;20193;49.810;6.418;2022-08-18T07:25:38;14.50;;;13.60;;
33900;SDS011;20193;49.810;6.418;2022-08-18T07:28:06;15.70;;;14.43;;
33900;SDS011;20193;49.810;6.418;2022-08-18T07:30:51;17.73;;;16.23;;
33900;SDS011;20193;49.810;6.418;2022-08-18T07:33:30;18.73;;;17.33;;
33900;SDS011;20193;49.810;6.418;2022-08-18T07:35:57;19.67;;;18.40;;
33900;SDS011;20193;49.810;6.418;2022-08-18T07:38:37;19.05;;;17.75;;
33900;SDS011;20193;49.810;6.418;2022-08-18T07:41:15;18.92;;;17.63;;
33900;SDS011;20193;49.810;6.418;2022-08-18T07:43:45;20.00;;;18.50;;
33900;SDS011;20193;49.810;6.418;2022-08-18T07:49:06;19.50;;;18.20;;
33900;SDS011;20193;49.810;6.418;2022-08-18T07:59:56;16.15;;;14.98;;
33900;SDS011;20193;49.810;6.418;2022-08-18T08:07:55;17.70;;;16.50;;
33900;SDS011;20193;49.810;6.418;2022-08-18T08:15:53;16.70;;;15.50;;
33900;SDS011;20193;49.810;6.418;2022-08-18T08:21:23;16.85;;;15.65;;
33900;SDS011;20193;49.810;6.418;2022-08-18T08:29:48;16.40;;;15.30;;
33900;SDS011;20193;49.810;6.418;2022-08-18T08:35:09;16.05;;;14.88;;
33900;SDS011;20193;49.810;6.418;2022-08-18T08:37:40;16.00;;;14.90;;
33900;SDS011;20193;49.810;6.418;2022-08-18T08:40:40;15.77;;;14.75;;
33900;SDS011;20193;49.810;6.418;2022-08-18T08:43:14;15.27;;;14.18;;
33900;SDS011;20193;49.810;6.418;2022-08-18T08:45:44;16.02;;;14.73;;
33900;SDS011;20193;49.810;6.418;2022-08-18T08:48:25;15.75;;;14.43;;
33900;SDS011;20193;49.810;6.418;2022-08-18T08:53:52;15.88;;;14.88;;
33900;SDS011;20193;49.810;6.418;2022-08-18T08:56:35;17.80;;;16.38;;
33900;SDS011;20193;49.810;6.418;2022-08-18T08:59:11;16.38;;;15.05;;
33900;SDS011;20193;49.810;6.418;2022-08-18T09:04:46;21.15;;;19.65;;
33900;SDS011;20193;49.810;6.418;2022-08-18T09:07:52;20.13;;;18.63;;
33900;SDS011;20193;49.810;6.418;2022-08-18T09:19:29;19.23;;;17.83;;
33900;SDS011;20193;49.810;6.418;2022-08-18T09:22:27;18.15;;;16.73;;
33900;SDS011;20193;49.810;6.418;2022-08-18T09:24:54;16.95;;;15.75;;
33900;SDS011;20193;49.810;6.418;2022-08-18T09:30:06;19.90;;;18.40;;
33900;SDS011;20193;49.810;6.418;2022-08-18T09:32:56;21.00;;;19.48;;
33900;SDS011;20193;49.810;6.418;2022-08-18T09:38:31;21.77;;;20.05;;
33900;SDS011;20193;49.810;6.418;2022-08-18T09:41:25;20.98;;;19.15;;
33900;SDS011;20193;49.810;6.418;2022-08-18T09:44:07;21.60;;;20.00;;
33900;SDS011;20193;49.810;6.418;2022-08-18T09:51:49;21.38;;;19.77;;
33900;SDS011;20193;49.810;6.418;2022-08-18T09:54:17;21.08;;;19.58;;
33900;SDS011;20193;49.810;6.418;2022-08-18T10:02:02;21.92;;;20.25;;
33900;SDS011;20193;49.810;6.418;2022-08-18T10:04:43;21.20;;;19.55;;
33900;SDS011;20193;49.810;6.418;2022-08-18T10:07:31;20.77;;;19.08;;
33900;SDS011;20193;49.810;6.418;2022-08-18T10:12:49;18.60;;;17.15;;
33900;SDS011;20193;49.810;6.418;2022-08-18T10:15:31;19.73;;;18.20;;
33900;SDS011;20193;49.810;6.418;2022-08-18T10:18:01;19.05;;;17.38;;
33900;SDS011;20193;49.810;6.418;2022-08-18T10:28:59;18.75;;;17.27;;
33900;SDS011;20193;49.810;6.418;2022-08-18T10:31:26;17.27;;;15.95;;
33900;SDS011;20193;49.810;6.418;2022-08-18T10:34:06;16.60;;;15.43;;
33900;SDS011;20193;49.810;6.418;2022-08-18T10:36:44;23.20;;;21.10;;
33900;SDS011;20193;49.810;6.418;2022-08-18T10:39:23;17.20;;;15.80;;
33900;SDS011;20193;49.810;6.418;2022-08-18T10:42:21;16.42;;;15.13;;
33900;SDS011;20193;49.810;6.418;2022-08-18T10:44:59;16.15;;;14.95;;
33900;SDS011;20193;49.810;6.418;2022-08-18T10:47:36;15.07;;;13.90;;
33900;SDS011;20193;49.810;6.418;2022-08-18T10:50:04;14.18;;;13.18;;
33900;SDS011;20193;49.810;6.418;2022-08-18T11:07:31;9.95;;;9.20;;
33900;SDS011;20193;49.810;6.418;2022-08-18T11:10:00;9.57;;;8.85;;
33900;SDS011;20193;49.810;6.418;2022-08-18T11:15:35;10.93;;;10.23;;
33900;SDS011;20193;49.810;6.418;2022-08-18T11:31:55;14.27;;;13.25;;
33900;SDS011;20193;49.810;6.418;2022-08-18T11:34:25;12.85;;;11.98;;
33900;SDS011;20193;49.810;6.418;2022-08-18T11:36:56;12.75;;;11.82;;
33900;SDS011;20193;49.810;6.418;2022-08-18T11:39:26;11.48;;;10.57;;
33900;SDS011;20193;49.810;6.418;2022-08-18T11:41:52;11.77;;;10.98;;
33900;SDS011;20193;49.810;6.418;2022-08-18T11:44:21;12.55;;;11.65;;
33900;SDS011;20193;49.810;6.418;2022-08-18T11:46:52;12.07;;;11.27;;
33900;SDS011;20193;49.810;6.418;2022-08-18T11:49:44;11.88;;;10.98;;
33900;SDS011;20193;49.810;6.418;2022-08-18T11:52:33;10.93;;;10.13;;
33900;SDS011;20193;49.810;6.418;2022-08-18T11:55:27;11.73;;;10.82;;
33900;SDS011;20193;49.810;6.418;2022-08-18T11:57:56;10.52;;;9.73;;
33900;SDS011;20193;49.810;6.418;2022-08-18T12:03:18;10.13;;;9.23;;
33900;SDS011;20193;49.810;6.418;2022-08-18T12:06:23;9.13;;;8.50;;
33900;SDS011;20193;49.810;6.418;2022-08-18T12:11:32;9.70;;;8.90;;
33900;SDS011;20193;49.810;6.418;2022-08-18T12:14:09;9.48;;;8.68;;
33900;SDS011;20193;49.810;6.418;2022-08-18T12:16:47;10.02;;;9.07;;
33900;SDS011;20193;49.810;6.418;2022-08-18T12:19:13;8.40;;;7.80;;
33900;SDS011;20193;49.810;6.418;2022-08-18T12:22:01;8.80;;;8.07;;
33900;SDS011;20193;49.810;6.418;2022-08-18T12:24:36;8.38;;;7.70;;
33900;SDS011;20193;49.810;6.418;2022-08-18T12:27:02;8.95;;;8.07;;
33900;SDS011;20193;49.810;6.418;2022-08-18T12:29:27;8.85;;;8.05;;
33900;SDS011;20193;49.810;6.418;2022-08-18T12:31:53;7.82;;;7.32;;
33900;SDS011;20193;49.810;6.418;2022-08-18T12:34:20;7.80;;;7.30;;
33900;SDS011;20193;49.810;6.418;2022-08-18T12:36:49;8.75;;;7.07;;
33900;SDS011;20193;49.810;6.418;2022-08-18T12:39:16;8.15;;;7.65;;
33900;SDS011;20193;49.810;6.418;2022-08-18T12:41:42;8.38;;;7.72;;
33900;SDS011;20193;49.810;6.418;2022-08-18T12:44:08;8.55;;;7.95;;
33900;SDS011;20193;49.810;6.418;2022-08-18T12:46:33;7.93;;;7.25;;
33900;SDS011;20193;49.810;6.418;2022-08-18T12:49:00;8.00;;;7.47;;
33900;SDS011;20193;49.810;6.418;2022-08-18T12:51:30;7.80;;;7.28;;
33900;SDS011;20193;49.810;6.418;2022-08-18T12:53:56;9.23;;;8.43;;
33900;SDS011;20193;49.810;6.418;2022-08-18T12:56:25;8.57;;;8.07;;
33900;SDS011;20193;49.810;6.418;2022-08-18T12:58:54;8.45;;;7.63;;
33900;SDS011;20193;49.810;6.418;2022-08-18T13:01:21;8.93;;;8.32;;
33900;SDS011;20193;49.810;6.418;2022-08-18T13:03:50;8.35;;;7.75;;
33900;SDS011;20193;49.810;6.418;2022-08-18T13:06:19;8.30;;;7.70;;
33900;SDS011;20193;49.810;6.418;2022-08-18T13:08:46;9.18;;;8.48;;
33900;SDS011;20193;49.810;6.418;2022-08-18T13:11:13;8.00;;;7.50;;
33900;SDS011;20193;49.810;6.418;2022-08-18T13:13:39;9.38;;;8.18;;
33900;SDS011;20193;49.810;6.418;2022-08-18T13:16:06;9.18;;;8.57;;
33900;SDS011;20193;49.810;6.418;2022-08-18T13:18:32;8.73;;;8.13;;
33900;SDS011;20193;49.810;6.418;2022-08-18T13:20:59;9.30;;;8.70;;
33900;SDS011;20193;49.810;6.418;2022-08-18T13:23:27;8.73;;;8.15;;
33900;SDS011;20193;49.810;6.418;2022-08-18T13:25:54;7.90;;;7.50;;
33900;SDS011;20193;49.810;6.418;2022-08-18T13:28:22;8.65;;;8.10;;
33900;SDS011;20193;49.810;6.418;2022-08-18T13:30:47;8.20;;;7.57;;
33900;SDS011;20193;49.810;6.418;2022-08-18T13:33:15;8.60;;;8.10;;
33900;SDS011;20193;49.810;6.418;2022-08-18T13:35:42;9.20;;;8.60;;
33900;SDS011;20193;49.810;6.418;2022-08-18T13:38:09;9.30;;;8.60;;
33900;SDS011;20193;49.810;6.418;2022-08-18T13:40:36;8.13;;;7.60;;
33900;SDS011;20193;49.810;6.418;2022-08-18T13:43:02;8.82;;;8.30;;
33900;SDS011;20193;49.810;6.418;2022-08-18T13:45:28;8.48;;;7.88;;
33900;SDS011;20193;49.810;6.418;2022-08-18T13:47:54;9.10;;;8.43;;
33900;SDS011;20193;49.810;6.418;2022-08-18T13:50:20;8.35;;;7.75;;
33900;SDS011;20193;49.810;6.418;2022-08-18T13:52:49;8.77;;;8.07;;
33900;SDS011;20193;49.810;6.418;2022-08-18T13:55:15;8.32;;;7.82;;
33900;SDS011;20193;49.810;6.418;2022-08-18T13:57:42;9.63;;;8.15;;
33900;SDS011;20193;49.810;6.418;2022-08-18T14:00:16;8.45;;;7.85;;
33900;SDS011;20193;49.810;6.418;2022-08-18T14:02:48;9.50;;;8.70;;
33900;SDS011;20193;49.810;6.418;2022-08-18T14:05:18;8.70;;;8.10;;
33900;SDS011;20193;49.810;6.418;2022-08-18T14:07:44;8.00;;;7.40;;
33900;SDS011;20193;49.810;6.418;2022-08-18T14:10:11;8.95;;;7.88;;
33900;SDS011;20193;49.810;6.418;2022-08-18T14:12:38;8.07;;;7.57;;
33900;SDS011;20193;49.810;6.418;2022-08-18T14:15:06;8.20;;;7.63;;
33900;SDS011;20193;49.810;6.418;2022-08-18T14:17:35;9.00;;;8.40;;
33900;SDS011;20193;49.810;6.418;2022-08-18T14:20:02;8.35;;;7.68;;
33900;SDS011;20193;49.810;6.418;2022-08-18T14:22:50;8.82;;;8.10;;
33900;SDS011;20193;49.810;6.418;2022-08-18T14:25:36;9.05;;;8.35;;
33900;SDS011;20193;49.810;6.418;2022-08-18T14:28:21;9.00;;;8.40;;
33900;SDS011;20193;49.810;6.418;2022-08-18T14:30:46;8.70;;;8.07;;
33900;SDS011;20193;49.810;6.418;2022-08-18T14:33:12;7.63;;;7.18;;
33900;SDS011;20193;49.810;6.418;2022-08-18T14:35:43;7.88;;;7.40;;
33900;SDS011;20193;49.810;6.418;2022-08-18T14:38:08;8.40;;;7.80;;
33900;SDS011;20193;49.810;6.418;2022-08-18T14:40:34;8.10;;;7.60;;
33900;SDS011;20193;49.810;6.418;2022-08-18T14:43:02;8.05;;;7.45;;
33900;SDS011;20193;49.810;6.418;2022-08-18T14:45:28;8.13;;;7.43;;
33900;SDS011;20193;49.810;6.418;2022-08-18T14:47:55;7.72;;;7.22;;
33900;SDS011;20193;49.810;6.418;2022-08-18T14:50:21;8.13;;;7.63;;
33900;SDS011;20193;49.810;6.418;2022-08-18T14:52:48;8.77;;;8.27;;
33900;SDS011;20193;49.810;6.418;2022-08-18T14:55:14;8.05;;;7.53;;
33900;SDS011;20193;49.810;6.418;2022-08-18T14:57:41;8.35;;;7.72;;
33900;SDS011;20193;49.810;6.418;2022-08-18T15:00:08;8.00;;;7.32;;
33900;SDS011;20193;49.810;6.418;2022-08-18T15:02:38;9.05;;;8.45;;
33900;SDS011;20193;49.810;6.418;2022-08-18T15:05:05;7.97;;;7.47;;
33900;SDS011;20193;49.810;6.418;2022-08-18T15:07:32;8.07;;;7.57;;
33900;SDS011;20193;49.810;6.418;2022-08-18T15:09:58;9.13;;;8.43;;
33900;SDS011;20193;49.810;6.418;2022-08-18T15:12:24;8.02;;;7.43;;
33900;SDS011;20193;49.810;6.418;2022-08-18T15:14:52;7.90;;;7.40;;
33900;SDS011;20193;49.810;6.418;2022-08-18T15:17:18;8.85;;;8.25;;
33900;SDS011;20193;49.810;6.418;2022-08-18T15:19:43;7.25;;;6.85;;
33900;SDS011;20193;49.810;6.418;2022-08-18T15:22:11;8.18;;;7.65;;
33900;SDS011;20193;49.810;6.418;2022-08-18T15:24:56;7.70;;;7.20;;
33900;SDS011;20193;49.810;6.418;2022-08-18T15:27:40;8.25;;;7.65;;
33900;SDS011;20193;49.810;6.418;2022-08-18T15:30:07;7.60;;;7.10;;
33900;SDS011;20193;49.810;6.418;2022-08-18T15:32:35;8.82;;;8.20;;
33900;SDS011;20193;49.810;6.418;2022-08-18T15:35:07;8.05;;;7.45;;
33900;SDS011;20193;49.810;6.418;2022-08-18T15:37:34;8.35;;;7.75;;
33900;SDS011;20193;49.810;6.418;2022-08-18T15:40:01;8.38;;;7.80;;
33900;SDS011;20193;49.810;6.418;2022-08-18T15:42:41;8.23;;;7.65;;
33900;SDS011;20193;49.810;6.418;2022-08-18T15:45:10;8.52;;;7.78;;
33900;SDS011;20193;49.810;6.418;2022-08-18T15:47:40;8.15;;;7.65;;
33900;SDS011;20193;49.810;6.418;2022-08-18T15:50:07;8.63;;;8.02;;
33900;SDS011;20193;49.810;6.418;2022-08-18T15:52:35;8.07;;;7.55;;
33900;SDS011;20193;49.810;6.418;2022-08-18T15:55:00;10.82;;;9.43;;
33900;SDS011;20193;49.810;6.418;2022-08-18T15:57:29;11.25;;;8.32;;
33900;SDS011;20193;49.810;6.418;2022-08-18T15:59:55;9.05;;;8.18;;
33900;SDS011;20193;49.810;6.418;2022-08-18T16:02:20;8.90;;;8.20;;
33900;SDS011;20193;49.810;6.418;2022-08-18T16:04:47;8.10;;;7.60;;
33900;SDS011;20193;49.810;6.418;2022-08-18T16:07:13;8.10;;;7.47;;
33900;SDS011;20193;49.810;6.418;2022-08-18T16:09:40;8.95;;;8.25;;
33900;SDS011;20193;49.810;6.418;2022-08-18T16:12:07;8.82;;;8.20;;
33900;SDS011;20193;49.810;6.418;2022-08-18T16:14:35;9.05;;;8.23;;
33900;SDS011;20193;49.810;6.418;2022-08-18T16:17:02;8.52;;;7.93;;
33900;SDS011;20193;49.810;6.418;2022-08-18T16:19:28;7.50;;;7.07;;
33900;SDS011;20193;49.810;6.418;2022-08-18T16:21:54;8.15;;;7.65;;
33900;SDS011;20193;49.810;6.418;2022-08-18T16:24:20;8.15;;;7.57;;
33900;SDS011;20193;49.810;6.418;2022-08-18T16:26:47;8.40;;;7.80;;
33900;SDS011;20193;49.810;6.418;2022-08-18T16:29:15;8.50;;;8.00;;
33900;SDS011;20193;49.810;6.418;2022-08-18T16:31:41;8.27;;;7.78;;
33900;SDS011;20193;49.810;6.418;2022-08-18T16:34:07;8.93;;;8.13;;
33900;SDS011;20193;49.810;6.418;2022-08-18T16:36:33;7.63;;;6.97;;
33900;SDS011;20193;49.810;6.418;2022-08-18T16:38:59;7.63;;;7.13;;
33900;SDS011;20193;49.810;6.418;2022-08-18T16:41:25;7.72;;;7.22;;
33900;SDS011;20193;49.810;6.418;2022-08-18T16:43:51;10.50;;;9.70;;
33900;SDS011;20193;49.810;6.418;2022-08-18T16:46:17;11.65;;;10.57;;
33900;SDS011;20193;49.810;6.418;2022-08-18T16:48:47;12.45;;;11.38;;
33900;SDS011;20193;49.810;6.418;2022-08-18T16:51:16;12.68;;;11.77;;
33900;SDS011;20193;49.810;6.418;2022-08-18T16:53:44;11.70;;;10.80;;
33900;SDS011;20193;49.810;6.418;2022-08-18T16:56:15;12.43;;;11.52;;
33900;SDS011;20193;49.810;6.418;2022-08-18T16:58:44;13.05;;;12.05;;
33900;SDS011;20193;49.810;6.418;2022-08-18T17:01:28;13.25;;;12.10;;
33900;SDS011;20193;49.810;6.418;2022-08-18T17:04:13;12.52;;;11.48;;
33900;SDS011;20193;49.810;6.418;2022-08-18T17:06:42;12.55;;;11.55;;
33900;SDS011;20193;49.810;6.418;2022-08-18T17:09:08;11.98;;;10.90;;
33900;SDS011;20193;49.810;6.418;2022-08-18T17:11:35;12.75;;;11.55;;
33900;SDS011;20193;49.810;6.418;2022-08-18T17:14:02;12.60;;;11.65;;
33900;SDS011;20193;49.810;6.418;2022-08-18T17:16:29;13.13;;;12.13;;
33900;SDS011;20193;49.810;6.418;2022-08-18T17:18:55;14.38;;;12.77;;
33900;SDS011;20193;49.810;6.418;2022-08-18T17:21:24;14.75;;;13.27;;
33900;SDS011;20193;49.810;6.418;2022-08-18T17:23:51;13.25;;;12.15;;
33900;SDS011;20193;49.810;6.418;2022-08-18T17:26:27;14.27;;;12.88;;
33900;SDS011;20193;49.810;6.418;2022-08-18T17:29:24;14.60;;;13.50;;
33900;SDS011;20193;49.810;6.418;2022-08-18T17:32:09;15.27;;;13.98;;